Time;durP1;ratioP1;P1;durP2;ratioP2;P2;SDS_P1;SDS_P2;PMS_P1;PMS_P2;Temp;Humidity;BMP_temperature;BMP_pressure;BME280_temperature;BME280_humidity;BME280_pressure;Samples;Min_cycle;Max_cycle;Signal;HPM_P1;HPM_P2
2021/04/02 00:05:52;;;;;;;4.72;2.55;;;;;;;9.01;59.48;102815.81;5068847;28;20410;-90
2021/04/02 00:08:20;;;;;;;4.55;2.28;;;;;;;8.99;59.89;102812.25;5043627;28;20109;-91
2021/04/02 00:10:51;;;;;;;7.40;2.10;;;;;;;9.04;59.84;102809.69;5038090;28;20096;-90
2021/04/02 00:13:21;;;;;;;5.00;2.67;;;;;;;8.98;59.79;102814.88;5035965;28;20427;-90
2021/04/02 00:15:56;;;;;;;8.23;2.28;;;;;;;8.96;59.65;102804.28;5035242;28;20473;-90
2021/04/02 00:18:33;;;;;;;7.25;2.53;;;;;;;8.96;59.88;102812.22;5035768;28;20030;-88
2021/04/02 00:21:09;;;;;;;8.70;2.47;;;;;;;8.93;59.75;102806.84;5038369;28;20022;-85
2021/04/02 00:23:40;;;;;;;9.65;2.67;;;;;;;8.88;59.99;102811.16;5037051;28;20061;-86
2021/04/02 00:26:08;;;;;;;7.70;2.22;;;;;;;8.87;59.96;102812.03;5039358;28;20079;-90
2021/04/02 00:28:35;;;;;;;6.65;2.95;;;;;;;8.85;59.81;102804.06;5036701;28;20033;-89
2021/04/02 00:31:01;;;;;;;9.57;2.50;;;;;;;8.83;60.32;102810.19;5038502;28;20034;-89
2021/04/02 00:33:30;;;;;;;6.57;2.13;;;;;;;8.83;60.04;102820.78;5040449;28;20075;-90
2021/04/02 00:35:58;;;;;;;7.90;1.98;;;;;;;8.84;59.84;102819.91;5037886;28;20029;-90
2021/04/02 00:38:25;;;;;;;7.93;2.67;;;;;;;8.81;60.63;102811.91;5040098;28;20029;-90
2021/04/02 00:40:56;;;;;;;7.15;2.45;;;;;;;8.86;60.00;102811.16;5037421;28;20030;-89
2021/04/02 00:43:34;;;;;;;5.82;2.25;;;;;;;8.88;60.04;102814.72;5039483;28;20469;-89
2021/04/02 00:46:02;;;;;;;4.90;2.13;;;;;;;8.79;60.43;102811.88;5037599;28;20536;-90
2021/04/02 00:48:29;;;;;;;6.63;2.08;;;;;;;8.78;60.13;102817.16;5040233;28;20029;-90
2021/04/02 00:50:59;;;;;;;7.80;1.70;;;;;;;8.83;60.10;102816.34;5038637;28;20438;-90
2021/04/02 00:53:30;;;;;;;9.93;1.83;;;;;;;8.83;60.33;102811.06;5039831;28;20021;-91
2021/04/02 00:55:59;;;;;;;5.90;1.83;;;;;;;8.83;60.28;102815.47;5037838;28;20363;-89
2021/04/02 00:58:32;;;;;;;4.93;2.53;;;;;;;8.85;60.05;102821.69;5039658;28;20078;-91
2021/04/02 01:00:59;;;;;;;4.32;2.05;;;;;;;8.81;60.41;102817.19;5038967;28;20029;-90
2021/04/02 01:03:26;;;;;;;5.13;2.17;;;;;;;8.82;59.83;102814.59;5039401;28;20036;-91
2021/04/02 01:05:55;;;;;;;4.47;1.80;;;;;;;8.79;60.23;102814.53;5037205;28;20017;-91
2021/04/02 01:08:26;;;;;;;8.43;1.80;;;;;;;8.75;60.39;102812.69;5039276;28;20025;-91
2021/04/02 01:10:57;;;;;;;3.10;1.67;;;;;;;8.75;60.64;102815.34;5038175;28;20116;-91
2021/04/02 01:13:30;;;;;;;5.93;2.10;;;;;;;8.73;60.50;102814.41;5039676;28;20049;-89
2021/04/02 01:16:13;;;;;;;6.38;1.90;;;;;;;8.83;60.45;102810.19;5031027;28;20029;-91
2021/04/02 01:21:29;;;;;;;7.07;2.15;;;;;;;8.73;59.94;102809.13;5111414;27;20394;-91
2021/04/02 01:27:07;;;;;;;3.05;1.77;;;;;;;8.69;60.09;102805.53;5077968;27;20153;-91
2021/04/02 01:32:23;;;;;;;3.00;1.40;;;;;;;8.67;59.64;102809.91;5138460;27;20366;-91
2021/04/02 01:34:50;;;;;;;;;;;;;;;8.76;60.18;102803.00;5136770;27;20536;-93
2021/04/02 01:37:24;;;;;;;8.25;1.73;;;;;;;8.68;59.74;102806.38;5138469;27;19919;-92
2021/04/02 01:39:53;;;;;;;3.17;2.05;;;;;;;8.72;60.02;102808.25;5134548;27;20031;-92
2021/04/02 01:42:22;;;;;;;5.63;1.80;;;;;;;8.69;59.63;102802.00;5137962;27;20023;-92
2021/04/02 01:44:51;;;;;;;9.45;1.67;;;;;;;8.66;60.00;102796.66;5136426;27;20016;-90
2021/04/02 01:47:19;;;;;;;6.22;1.83;;;;;;;8.74;59.94;102806.50;5136054;27;20027;-92
2021/04/02 01:49:47;;;;;;;6.88;1.90;;;;;;;8.69;59.95;102802.88;5136535;27;20030;-90
2021/04/02 01:52:14;;;;;;;8.38;2.08;;;;;;;8.68;60.65;102811.66;5131750;27;20023;-89
2021/04/02 01:54:42;;;;;;;5.03;2.35;;;;;;;8.72;60.78;102802.97;5134372;27;20038;-85
2021/04/02 01:57:11;;;;;;;7.88;2.63;;;;;;;8.84;60.48;102806.69;5135487;27;20057;-85
2021/04/02 01:59:39;;;;;;;11.90;2.90;;;;;;;8.84;60.56;102811.97;5135540;27;20031;-91
2021/04/02 02:02:10;;;;;;;14.25;3.10;;;;;;;8.81;60.79;102806.63;5135340;27;20359;-89
2021/04/02 02:04:39;;;;;;;11.43;3.70;;;;;;;8.85;59.95;102813.78;5131874;27;20024;-90
2021/04/02 02:07:07;;;;;;;8.77;3.00;;;;;;;8.88;60.40;102808.53;5135236;27;20027;-90
2021/04/02 02:09:39;;;;;;;8.00;3.20;;;;;;;8.90;60.34;102814.75;5126148;27;20019;-86
2021/04/02 02:12:08;;;;;;;8.77;2.67;;;;;;;8.95;60.40;102810.44;5134896;27;20026;-89
2021/04/02 02:14:38;;;;;;;6.55;3.03;;;;;;;8.89;60.72;102816.47;5131427;27;20490;-90
2021/04/02 02:17:08;;;;;;;9.73;3.63;;;;;;;8.98;60.30;102815.75;5134246;27;20043;-88
2021/04/02 02:19:37;;;;;;;11.13;3.45;;;;;;;8.85;60.79;102814.66;5133267;27;20035;-90
2021/04/02 02:22:06;;;;;;;6.07;3.38;;;;;;;8.88;60.05;102808.53;5133696;27;20466;-90
2021/04/02 02:24:34;;;;;;;11.38;3.45;;;;;;;8.86;60.02;102815.53;5126088;27;20053;-91
2021/04/02 02:27:03;;;;;;;10.00;3.30;;;;;;;8.85;60.19;102813.78;5132936;27;20031;-91
2021/04/02 02:29:31;;;;;;;8.57;2.88;;;;;;;8.81;60.41;102814.53;5134613;27;20031;-92
2021/04/02 02:31:58;;;;;;;6.63;3.30;;;;;;;8.71;61.08;102805.56;5131750;27;20035;-89
2021/04/02 02:34:24;;;;;;;13.30;4.07;;;;;;;8.82;60.29;102805.75;5136012;27;20184;-90
2021/04/02 02:36:52;;;;;;;11.32;3.60;;;;;;;8.85;60.73;102813.78;5134432;27;20019;-90
2021/04/02 02:39:18;;;;;;;8.23;4.32;;;;;;;8.92;60.16;102810.34;5139362;27;20027;-89
2021/04/02 02:41:45;;;;;;;15.52;3.75;;;;;;;8.87;60.16;102809.38;5129730;27;20027;-88
2021/04/02 02:44:13;;;;;;;9.73;3.35;;;;;;;8.85;60.83;102805.84;5122784;27;20038;-90
2021/04/02 02:46:40;;;;;;;8.35;3.53;;;;;;;8.85;61.00;102797.91;5120494;27;20041;-88
2021/04/02 02:51:48;;;;;;;10.02;3.58;;;;;;;8.78;61.57;102809.22;5081203;27;20463;-84
2021/04/02 02:54:18;;;;;;;11.70;3.42;;;;;;;8.81;60.90;102801.34;5059375;28;20029;-84
2021/04/02 02:56:48;;;;;;;12.35;3.95;;;;;;;8.78;60.97;102801.28;5060928;28;21631;-85
2021/04/02 02:59:18;;;;;;;17.67;4.60;;;;;;;8.93;60.68;102806.84;5039972;28;20029;-85
2021/04/02 03:01:46;;;;;;;11.73;3.45;;;;;;;8.90;60.83;102801.53;5036754;28;20053;-85
2021/04/02 03:04:16;;;;;;;14.65;4.03;;;;;;;8.94;60.76;102808.63;5038580;28;20079;-84
2021/04/02 03:06:46;;;;;;;7.22;4.10;;;;;;;8.84;60.88;102801.41;5038881;28;20426;-86
2021/04/02 03:09:15;;;;;;;14.52;4.20;;;;;;;8.83;61.13;102794.34;5037429;28;20038;-85
2021/04/02 03:11:43;;;;;;;11.93;3.72;;;;;;;8.86;61.21;102797.03;5036146;28;20053;-86
2021/04/02 03:14:12;;;;;;;9.05;3.70;;;;;;;8.83;61.23;102797.84;5037958;28;20075;-85
2021/04/02 03:16:44;;;;;;;13.25;3.90;;;;;;;8.84;60.83;102802.28;5038113;28;20372;-85
2021/04/02 03:19:14;;;;;;;14.70;3.67;;;;;;;8.76;61.93;102803.00;5035691;28;20022;-86
2021/04/02 03:21:41;;;;;;;8.27;4.25;;;;;;;8.71;62.03;102794.97;5035515;28;20280;-86
2021/04/02 03:24:08;;;;;;;12.77;4.88;;;;;;;8.73;61.85;102798.56;5040378;28;20029;-86
2021/04/02 03:26:36;;;;;;;14.95;3.95;;;;;;;8.80;61.38;102797.81;5036951;28;20035;-85
2021/04/02 03:29:04;;;;;;;16.23;4.68;;;;;;;8.82;61.74;102800.47;5036130;28;20029;-86
2021/04/02 03:31:34;;;;;;;12.30;4.15;;;;;;;8.77;61.18;102799.50;5035254;28;20030;-85
2021/04/02 03:34:02;;;;;;;16.15;4.28;;;;;;;8.70;61.35;102790.59;5037952;28;20029;-86
2021/04/02 03:36:31;;;;;;;15.40;3.60;;;;;;;8.67;61.93;102793.16;5036113;28;20026;-86
2021/04/02 03:38:58;;;;;;;11.98;4.28;;;;;;;8.67;61.30;102796.69;5036304;28;20029;-86
2021/04/02 03:41:29;;;;;;;11.98;3.65;;;;;;;8.63;61.56;102791.31;5037058;28;20052;-85
2021/04/02 03:43:58;;;;;;;8.23;4.20;;;;;;;8.59;61.64;102790.38;5034418;28;20034;-86
2021/04/02 03:46:26;;;;;;;8.02;3.80;;;;;;;8.61;62.09;102783.38;5035764;28;20096;-86
2021/04/02 03:48:57;;;;;;;8.02;3.63;;;;;;;8.74;61.21;102785.34;5036901;28;20108;-86
2021/04/02 03:51:27;;;;;;;10.32;3.50;;;;;;;8.88;60.92;102783.00;5037434;28;20029;-85
2021/04/02 03:53:57;;;;;;;11.32;3.97;;;;;;;8.85;61.42;102793.50;5036629;28;20018;-85
2021/04/02 03:56:28;;;;;;;8.35;3.78;;;;;;;8.94;60.75;102792.78;5036361;28;20404;-85
2021/04/02 03:58:57;;;;;;;11.43;4.18;;;;;;;8.93;60.73;102790.13;5038787;28;20025;-85
2021/04/02 04:01:27;;;;;;;12.15;3.90;;;;;;;9.02;60.66;102783.25;5032889;28;20108;-85
2021/04/02 04:03:57;;;;;;;8.55;3.63;;;;;;;9.13;60.77;102787.81;5023339;28;20022;-86
2021/04/02 04:06:25;;;;;;;9.63;3.90;;;;;;;9.05;60.70;102791.22;5022397;28;20034;-86
2021/04/02 04:08:56;;;;;;;11.43;3.00;;;;;;;9.12;60.90;102788.69;5025021;28;20530;-85
2021/04/02 04:11:24;;;;;;;11.50;3.78;;;;;;;9.18;60.14;102796.72;5023554;28;20034;-85
2021/04/02 04:13:53;;;;;;;8.85;3.53;;;;;;;9.15;60.79;102792.25;5022729;28;20029;-86
2021/04/02 04:16:23;;;;;;;15.05;3.28;;;;;;;9.29;60.47;102795.13;5024109;28;20029;-85
2021/04/02 04:18:56;;;;;;;11.73;3.55;;;;;;;9.30;60.37;102790.75;5023797;28;20369;-86
2021/04/02 04:21:25;;;;;;;16.92;3.45;;;;;;;9.30;59.60;102804.84;5023304;28;20026;-86
2021/04/02 04:23:51;;;;;;;11.70;3.78;;;;;;;9.31;59.77;102797.81;5022487;28;20541;-85
2021/04/02 04:26:20;;;;;;;11.38;3.40;;;;;;;9.39;59.42;102797.09;5023920;28;20464;-85
2021/04/02 04:28:51;;;;;;;10.35;3.22;;;;;;;9.29;58.96;102794.25;5024316;28;20026;-85
2021/04/02 04:31:19;;;;;;;11.05;3.20;;;;;;;9.30;59.60;102789.00;5022922;28;20025;-86
2021/04/02 04:33:47;;;;;;;11.07;3.42;;;;;;;9.28;58.72;102790.72;5022032;28;20022;-85
2021/04/02 04:36:15;;;;;;;13.40;3.53;;;;;;;9.31;59.22;102792.50;5024718;28;20025;-85
2021/04/02 04:38:43;;;;;;;9.13;2.97;;;;;;;9.32;59.08;102794.28;5023646;28;20113;-86
2021/04/02 04:41:11;;;;;;;12.40;2.92;;;;;;;9.22;58.81;102794.16;5023040;28;20017;-86
2021/04/02 04:43:39;;;;;;;10.13;3.20;;;;;;;9.23;59.03;102797.69;5023774;28;20026;-86
2021/04/02 04:46:05;;;;;;;7.03;2.80;;;;;;;9.19;58.44;102799.38;5024263;28;20029;-85
2021/04/02 04:48:32;;;;;;;13.25;3.17;;;;;;;9.29;58.43;102803.06;5022318;28;20109;-86
2021/04/02 04:50:59;;;;;;;8.25;3.30;;;;;;;9.30;58.42;102801.34;5022809;28;20056;-85
2021/04/02 04:53:28;;;;;;;12.98;3.13;;;;;;;9.28;58.71;102801.28;5023876;28;20129;-85
2021/04/02 04:55:57;;;;;;;13.70;3.67;;;;;;;9.23;58.91;102808.25;5022269;28;20022;-85
2021/04/02 04:58:29;;;;;;;11.38;3.33;;;;;;;9.20;58.76;102811.75;5022778;28;20096;-84
2021/04/02 05:00:57;;;;;;;12.57;3.50;;;;;;;9.01;58.96;102815.81;5022515;28;20102;-85
2021/04/02 05:03:27;;;;;;;10.32;3.80;;;;;;;9.14;59.09;102816.03;5022730;28;20030;-85
2021/04/02 05:05:59;;;;;;;13.60;3.95;;;;;;;8.96;59.36;102814.84;5020723;28;20036;-85
2021/04/02 05:08:32;;;;;;;10.35;3.67;;;;;;;8.95;59.17;102820.09;5022290;28;20079;-84
2021/04/02 05:11:01;;;;;;;11.73;3.38;;;;;;;9.09;59.01;102810.66;5023381;28;20116;-85
2021/04/02 05:13:31;;;;;;;10.98;3.05;;;;;;;8.93;59.55;102817.44;5023461;28;20530;-84
2021/04/02 05:15:58;;;;;;;9.45;3.28;;;;;;;9.06;59.27;102816.78;5022643;28;20026;-86
2021/04/02 05:18:29;;;;;;;9.30;3.20;;;;;;;8.98;59.39;102815.75;5019731;28;20037;-86
2021/04/02 05:20:55;;;;;;;11.57;3.30;;;;;;;9.13;59.07;102814.25;5022858;28;20113;-87
2021/04/02 05:23:22;;;;;;;7.60;2.90;;;;;;;9.00;59.14;102816.69;5020598;28;20037;-86
2021/04/02 05:25:49;;;;;;;11.77;3.30;;;;;;;9.04;58.91;102815.88;5023224;28;20025;-86
2021/04/02 05:28:15;;;;;;;12.77;3.35;;;;;;;9.13;58.40;102811.63;5022175;28;20021;-86
2021/04/02 05:30:42;;;;;;;17.00;3.85;;;;;;;9.22;58.15;102817.06;5023390;28;20329;-88
2021/04/02 05:33:08;;;;;;;9.13;3.10;;;;;;;9.27;58.14;102823.34;5020828;28;20504;-85
2021/04/02 05:35:35;;;;;;;19.60;3.33;;;;;;;9.09;58.88;102823.00;5021006;28;20503;-87
2021/04/02 05:38:01;;;;;;;12.27;2.63;;;;;;;9.11;58.40;102815.97;5022782;28;20124;-86
2021/04/02 05:40:28;;;;;;;16.13;4.18;;;;;;;9.14;58.44;102821.34;5019771;28;20033;-85
2021/04/02 05:43:15;;;;;;;8.05;3.63;;;;;;;9.39;58.23;102810.31;5017748;28;20030;-85
2021/04/02 05:45:42;;;;;;;7.40;3.10;;;;;;;9.32;58.31;102820.75;5017800;28;20392;-84
2021/04/02 05:48:16;;;;;;;10.90;3.05;;;;;;;9.45;58.20;102821.88;5021077;28;20088;-84
2021/04/02 05:50:46;;;;;;;8.90;2.53;;;;;;;9.48;57.86;102817.53;5019005;28;20488;-84
2021/04/02 05:53:13;;;;;;;13.38;3.42;;;;;;;9.52;57.95;102824.63;5022339;28;20030;-84
2021/04/02 05:55:42;;;;;;;7.35;2.97;;;;;;;9.59;58.11;102824.72;5020087;28;20038;-80
2021/04/02 05:58:11;;;;;;;12.38;3.35;;;;;;;9.63;57.95;102822.16;5023158;28;20018;-82
2021/04/02 06:00:39;;;;;;;14.25;3.58;;;;;;;9.67;57.83;102818.69;5017460;28;20034;-81
2021/04/02 06:03:07;;;;;;;6.03;3.13;;;;;;;9.70;57.37;102818.72;5019188;28;20469;-81
2021/04/02 06:05:33;;;;;;;8.20;3.00;;;;;;;9.61;57.87;102821.25;5010355;28;20022;-81
2021/04/02 06:08:06;;;;;;;10.73;2.92;;;;;;;9.74;57.77;102824.09;5021308;28;20057;-94
2021/04/02 06:10:32;;;;;;;15.73;3.47;;;;;;;9.75;57.69;102820.56;5024639;28;20072;-92
2021/04/02 06:12:59;;;;;;;6.85;3.50;;;;;;;9.67;57.68;102833.66;5020971;28;20018;-90
2021/04/02 06:15:25;;;;;;;11.38;3.30;;;;;;;9.63;57.31;102827.47;5028024;28;20103;-89
2021/04/02 06:18:12;;;;;;;8.15;2.90;;;;;;;9.86;57.25;102824.28;5029844;28;20048;-90
2021/04/02 06:20:43;;;;;;;11.30;3.70;;;;;;;9.84;57.39;102823.34;5017938;28;20065;-88
2021/04/02 06:28:34;;;;;;;16.33;3.72;;;;;;;9.96;57.07;102828.81;5101523;27;20372;-88
2021/04/02 06:33:54;;;;;;;13.90;3.47;;;;;;;9.98;56.96;102829.75;5132052;27;20370;-89
2021/04/02 06:36:23;;;;;;;13.45;3.63;;;;;;;9.67;56.42;102834.56;5129355;28;20027;-91
2021/04/02 06:38:54;;;;;;;12.13;3.42;;;;;;;9.83;56.44;102841.00;5126213;27;20092;-90
2021/04/02 06:41:21;;;;;;;13.70;5.28;;;;;;;9.98;56.49;102835.03;5118010;28;20020;-83
2021/04/02 06:43:49;;;;;;;13.60;3.60;;;;;;;9.96;56.26;102835.88;5113133;28;20557;-89
2021/04/02 06:51:53;;;;;;;6.85;2.80;;;;;;;10.08;56.00;102843.09;5082791;27;20408;-89
2021/04/02 06:54:23;;;;;;;8.10;3.45;;;;;;;10.16;55.72;102842.34;5071413;28;20107;-88
2021/04/02 06:57:05;;;;;;;9.95;2.90;;;;;;;10.25;55.17;102848.66;5075636;28;20025;-88
2021/04/02 06:59:34;;;;;;;10.27;2.60;;;;;;;10.12;54.84;102852.88;5051853;28;20033;-86
2021/04/02 07:02:03;;;;;;;10.90;2.78;;;;;;;10.21;55.04;102853.00;5048991;28;20022;-87
2021/04/02 07:04:32;;;;;;;13.52;2.63;;;;;;;10.18;54.39;102855.59;5064640;28;20025;-89
2021/04/02 07:07:02;;;;;;;11.02;2.55;;;;;;;10.41;53.89;102849.78;5064075;28;20049;-88
2021/04/02 07:09:30;;;;;;;9.02;2.25;;;;;;;10.44;54.08;102861.31;5055777;28;20029;-90
2021/04/02 07:12:00;;;;;;;11.38;2.45;;;;;;;10.49;53.48;102853.41;5050273;28;20071;-89
2021/04/02 07:14:29;;;;;;;4.18;2.03;;;;;;;10.50;53.47;102861.41;5048874;28;20100;-89
2021/04/02 07:16:56;;;;;;;5.60;2.00;;;;;;;10.49;52.85;102864.00;5050260;28;20103;-90
2021/04/02 07:19:22;;;;;;;5.03;1.73;;;;;;;10.60;52.96;102862.38;5046584;28;20041;-89
2021/04/02 07:21:49;;;;;;;9.82;4.82;;;;;;;10.54;52.13;102862.28;5050034;28;20048;-91
2021/04/02 07:24:23;;;;;;;6.50;2.53;;;;;;;10.59;50.56;102865.91;5064392;28;20029;-90
2021/04/02 07:26:50;;;;;;;6.90;2.33;;;;;;;10.87;51.69;102866.22;5061239;28;20044;-91
2021/04/02 07:29:19;;;;;;;8.43;2.03;;;;;;;10.66;51.02;102862.44;5055099;28;20144;-90
2021/04/02 07:31:47;;;;;;;10.48;2.30;;;;;;;10.90;51.47;102870.69;5052466;28;20044;-89
2021/04/02 07:34:15;;;;;;;9.10;2.08;;;;;;;10.89;51.02;102875.13;5051108;28;20029;-89
2021/04/02 07:36:42;;;;;;;7.35;2.30;;;;;;;10.78;50.81;102877.63;5060097;28;20033;-89
2021/04/02 07:39:09;;;;;;;10.40;2.72;;;;;;;10.70;50.20;102870.47;5055125;28;20022;-91
2021/04/02 07:41:44;;;;;;;9.70;1.70;;;;;;;10.78;50.22;102876.72;5054840;28;20053;-90
2021/04/02 07:44:16;;;;;;;9.50;2.25;;;;;;;10.88;50.13;102886.59;5060155;28;20032;-89
2021/04/02 07:50:02;;;;;;;14.73;3.33;;;;;;;10.88;49.73;102905.16;5069667;28;20369;-90
2021/04/02 07:52:32;;;;;;;9.88;2.22;;;;;;;10.85;49.68;102899.78;5069595;28;20056;-89
2021/04/02 07:55:22;;;;;;;3.92;1.55;;;;;;;10.94;48.79;102897.25;5065400;28;20033;-88
2021/04/02 08:00:35;;;;;;;6.57;1.70;;;;;;;11.11;48.83;102905.38;5077978;27;20402;-90
2021/04/02 08:03:12;;;;;;;7.72;1.95;;;;;;;11.15;47.61;102893.06;5069041;28;20379;-84
2021/04/02 08:05:44;;;;;;;5.38;1.90;;;;;;;11.24;48.35;102893.16;5064601;28;20060;-88
2021/04/02 08:08:14;;;;;;;9.48;1.90;;;;;;;11.40;48.30;102893.31;5061132;28;20117;-88
2021/04/02 08:10:59;;;;;;;8.32;2.38;;;;;;;11.50;48.50;102900.47;5054316;28;20047;-88
2021/04/02 08:13:26;;;;;;;10.77;2.50;;;;;;;11.56;48.52;102895.22;5058796;28;20033;-89
2021/04/02 08:15:52;;;;;;;8.85;1.70;;;;;;;11.64;48.29;102896.19;5058715;28;20388;-89
2021/04/02 08:18:20;;;;;;;9.32;1.95;;;;;;;11.58;47.97;102898.78;5058213;28;20032;-88
2021/04/02 08:20:54;;;;;;;34.72;15.48;;;;;;;11.45;47.60;102907.50;5060402;28;20036;-88
2021/04/02 08:23:23;;;;;;;44.90;20.48;;;;;;;11.33;47.48;102909.16;5059741;28;20106;-90
2021/04/02 08:25:54;;;;;;;13.95;3.33;;;;;;;11.27;47.51;102902.91;5057499;28;20211;-88
2021/04/02 08:28:24;;;;;;;6.82;2.28;;;;;;;11.37;47.38;102910.09;5059676;28;20051;-89
2021/04/02 08:30:53;;;;;;;8.43;2.97;;;;;;;11.54;47.02;102912.00;5063845;28;20476;-88
2021/04/02 08:33:20;;;;;;;8.35;3.05;;;;;;;11.46;47.65;102914.59;5064146;28;20033;-88
2021/04/02 08:35:46;;;;;;;8.82;2.70;;;;;;;11.25;47.42;102918.84;5058975;28;20009;-88
2021/04/02 08:38:13;;;;;;;10.45;2.65;;;;;;;11.20;47.26;102917.88;5059682;28;20075;-89
2021/04/02 08:40:39;;;;;;;8.27;2.58;;;;;;;11.10;46.97;102916.00;5068314;28;20395;-88
2021/04/02 08:43:08;;;;;;;6.22;1.88;;;;;;;11.17;47.21;102916.06;5065914;28;20116;-86
2021/04/02 08:45:37;;;;;;;10.63;2.80;;;;;;;11.42;47.09;102918.09;5057446;28;20033;-88
2021/04/02 08:48:04;;;;;;;13.25;2.75;;;;;;;11.35;47.19;102916.25;5066026;28;20033;-87
2021/04/02 08:50:31;;;;;;;10.32;3.75;;;;;;;11.51;46.72;102920.84;5068947;28;20070;-88
2021/04/02 08:53:06;;;;;;;7.10;2.22;;;;;;;11.37;45.44;102922.47;5069570;28;20041;-87
2021/04/02 08:55:33;;;;;;;6.80;2.08;;;;;;;11.39;45.92;102921.63;5068005;28;20028;-88
2021/04/02 08:57:59;;;;;;;8.38;1.95;;;;;;;11.45;45.35;102918.13;5053722;28;20087;-87
2021/04/02 09:00:26;;;;;;;9.75;2.40;;;;;;;11.70;45.47;102897.09;5058902;28;20033;-87
2021/04/02 09:02:53;;;;;;;14.02;2.63;;;;;;;11.78;45.65;102909.56;5056132;28;20162;-86
2021/04/02 09:05:19;;;;;;;7.93;2.10;;;;;;;11.64;45.27;102912.09;5059250;28;20052;-89
2021/04/02 09:07:46;;;;;;;9.40;2.80;;;;;;;11.26;44.40;102920.59;5055658;28;20029;-87
2021/04/02 09:12:54;;;;;;;9.65;2.53;;;;;;;11.55;44.85;102929.72;5069961;28;20878;-85
2021/04/02 09:15:22;;;;;;;12.85;3.45;;;;;;;11.84;44.25;102926.44;5069795;28;20025;-86
2021/04/02 09:17:48;;;;;;;9.75;2.78;;;;;;;11.90;44.64;102922.06;5068407;28;20032;-87
2021/04/02 09:20:16;;;;;;;9.00;2.90;;;;;;;12.03;44.63;102919.53;5061655;28;20029;-86
2021/04/02 09:22:44;;;;;;;6.18;2.55;;;;;;;11.89;44.88;102927.38;5059944;28;20043;-86
2021/04/02 09:25:21;;;;;;;12.00;3.00;;;;;;;12.02;45.12;102925.72;5064560;28;20028;-89
2021/04/02 09:27:47;;;;;;;16.73;3.42;;;;;;;11.85;44.55;102922.91;5069848;28;20465;-88
2021/04/02 09:30:25;;;;;;;8.68;3.05;;;;;;;12.23;44.48;102912.56;5058899;28;20428;-88
2021/04/02 09:32:53;;;;;;;9.77;2.75;;;;;;;12.22;44.32;102913.44;5054138;28;20099;-88
2021/04/02 09:35:20;;;;;;;17.45;3.05;;;;;;;12.33;44.63;102902.91;5063544;28;20025;-88
2021/04/02 09:37:47;;;;;;;13.77;2.75;;;;;;;12.35;45.47;102908.22;5065363;28;20021;-81
2021/04/02 09:40:13;;;;;;;15.73;3.38;;;;;;;12.58;44.41;102917.19;5060571;28;20029;-88
2021/04/02 09:42:39;;;;;;;6.75;1.65;;;;;;;12.40;43.93;102910.03;5058763;28;20043;-88
2021/04/02 09:45:09;;;;;;;13.13;3.08;;;;;;;12.53;44.31;102907.44;5060497;28;20033;-90
2021/04/02 09:50:26;;;;;;;4.93;1.80;;;;;;;12.65;43.76;102917.22;5078921;27;20396;-89
2021/04/02 09:52:54;;;;;;;11.23;1.83;;;;;;;12.63;44.17;102917.22;5056346;28;20124;-89
2021/04/02 09:55:20;;;;;;;11.02;1.90;;;;;;;12.59;43.50;102913.66;5066342;28;20039;-89
2021/04/02 09:57:46;;;;;;;7.97;1.70;;;;;;;12.58;43.51;102909.22;5062987;28;20468;-89
2021/04/02 10:00:14;;;;;;;7.90;2.38;;;;;;;12.85;42.98;102909.34;5048237;28;20033;-88
2021/04/02 10:02:40;;;;;;;7.18;1.42;;;;;;;12.80;43.16;102909.34;5046616;28;20021;-89
2021/04/02 10:05:08;;;;;;;6.32;1.55;;;;;;;13.06;42.95;102913.81;5045704;28;20056;-87
2021/04/02 10:07:35;;;;;;;8.68;1.90;;;;;;;13.19;43.28;102910.31;5045127;28;20033;-88
2021/04/02 10:10:01;;;;;;;7.20;2.38;;;;;;;13.20;42.95;102917.44;5045588;28;20029;-89
2021/04/02 10:12:28;;;;;;;10.43;2.20;;;;;;;13.20;42.50;102920.09;5047426;28;20108;-89
2021/04/02 10:14:55;;;;;;;9.13;2.00;;;;;;;13.08;41.92;102925.38;5046299;28;20116;-90
2021/04/02 10:17:25;;;;;;;10.23;2.72;;;;;;;12.82;42.59;102914.66;5044683;28;20017;-89
2021/04/02 10:19:51;;;;;;;10.73;2.45;;;;;;;12.54;42.29;102910.09;5038546;28;20079;-88
2021/04/02 10:22:18;;;;;;;7.32;2.78;;;;;;;12.71;42.55;102911.94;5043596;28;20047;-89
2021/04/02 10:24:44;;;;;;;8.50;2.08;;;;;;;12.74;42.98;102909.31;5047157;28;20029;-88
2021/04/02 10:27:11;;;;;;;13.55;3.05;;;;;;;12.72;42.62;102913.72;5047820;28;20033;-89
2021/04/02 10:29:37;;;;;;;10.45;2.90;;;;;;;12.83;42.25;102911.97;5044366;28;20036;-88
2021/04/02 10:32:04;;;;;;;10.18;2.80;;;;;;;12.67;42.91;102920.78;5045154;28;20441;-88
2021/04/02 10:34:30;;;;;;;6.63;2.08;;;;;;;12.86;42.46;102916.44;5045711;28;20025;-90
2021/04/02 10:36:56;;;;;;;7.25;2.55;;;;;;;12.92;42.50;102928.00;5048273;28;20108;-88
2021/04/02 10:39:22;;;;;;;8.77;2.08;;;;;;;12.96;42.72;102918.25;5046824;28;20033;-90
2021/04/02 10:41:48;;;;;;;7.85;2.38;;;;;;;12.89;42.64;102917.34;5047634;28;20376;-87
2021/04/02 10:44:14;;;;;;;12.50;3.28;;;;;;;12.70;42.60;102905.75;5047200;28;20037;-88
2021/04/02 10:46:41;;;;;;;11.90;3.80;;;;;;;12.81;42.04;102905.78;5046142;28;20307;-90
2021/04/02 10:49:07;;;;;;;9.93;2.60;;;;;;;12.53;42.31;102910.97;5042456;28;20041;-87
2021/04/02 10:51:36;;;;;;;18.83;6.35;;;;;;;12.79;42.57;102912.88;5009439;28;20564;-88
2021/04/02 10:54:02;;;;;;;12.45;4.10;;;;;;;12.49;43.37;102914.50;5018631;28;20022;-91
2021/04/02 10:56:36;;;;;;;11.05;2.65;;;;;;;12.57;43.73;102914.53;5044593;28;20061;-90
2021/04/02 10:59:04;;;;;;;15.77;3.42;;;;;;;12.51;44.29;102925.13;5047799;28;20106;-90
2021/04/02 11:01:38;;;;;;;9.82;2.92;;;;;;;12.57;43.44;102926.09;5038165;28;20500;-90
2021/04/02 11:04:07;;;;;;;8.45;2.20;;;;;;;12.57;44.17;102931.41;5036053;28;20385;-90
2021/04/02 11:06:37;;;;;;;10.98;2.13;;;;;;;12.62;43.59;102929.66;5038222;28;20021;-91
2021/04/02 11:09:12;;;;;;;9.65;2.05;;;;;;;12.58;43.31;102921.63;5037644;28;20116;-90
2021/04/02 11:11:44;;;;;;;10.18;1.92;;;;;;;12.85;42.26;102915.56;5033537;28;20168;-88
2021/04/02 11:14:19;;;;;;;9.60;2.28;;;;;;;12.86;42.08;102921.75;5036387;28;20041;-91
2021/04/02 11:16:57;;;;;;;8.38;2.42;;;;;;;13.06;42.21;102917.41;5035993;28;20109;-91
2021/04/02 11:19:34;;;;;;;8.77;2.72;;;;;;;13.05;42.08;102907.63;5033620;28;20029;-90
2021/04/02 11:22:01;;;;;;;13.60;2.28;;;;;;;12.99;42.77;102915.59;5034567;28;20025;-91
2021/04/02 11:24:27;;;;;;;8.77;2.20;;;;;;;13.06;42.74;102909.41;5036321;28;20026;-91
2021/04/02 11:27:00;;;;;;;6.28;1.80;;;;;;;13.24;42.85;102916.53;5035529;28;20107;-90
2021/04/02 11:29:33;;;;;;;7.97;2.30;;;;;;;13.42;42.25;102913.06;5034566;28;20033;-91
2021/04/02 11:32:09;;;;;;;8.55;2.00;;;;;;;13.30;42.59;102909.47;5034747;28;20021;-84
2021/04/02 11:34:42;;;;;;;9.38;2.70;;;;;;;13.32;41.92;102899.69;5032779;28;20036;-90
2021/04/02 11:37:16;;;;;;;14.35;2.95;;;;;;;13.23;42.20;102901.47;5034909;28;20112;-91
2021/04/02 11:39:51;;;;;;;11.15;2.88;;;;;;;13.41;42.01;102894.44;5034304;28;20025;-92
2021/04/02 11:42:27;;;;;;;14.25;3.10;;;;;;;13.37;42.17;102897.91;5036543;28;20041;-90
2021/04/02 11:45:14;;;;;;;11.38;2.83;;;;;;;13.14;41.85;102905.88;5036062;28;20021;-88
2021/04/02 11:47:42;;;;;;;12.52;2.80;;;;;;;13.15;42.01;102897.91;5035788;28;20029;-88
2021/04/02 11:50:11;;;;;;;10.35;3.33;;;;;;;13.08;42.67;102896.09;5035327;28;20025;-89
2021/04/02 11:52:46;;;;;;;11.13;2.75;;;;;;;12.69;42.70;102898.63;5035091;28;20037;-87
2021/04/02 11:55:20;;;;;;;6.97;2.60;;;;;;;12.82;42.48;102896.03;5035010;28;20107;-89
2021/04/02 11:58:07;;;;;;;8.70;2.63;;;;;;;12.71;41.91;102904.88;5033067;28;20037;-89
2021/04/02 12:00:45;;;;;;;17.40;5.43;;;;;;;12.85;42.23;102904.91;5038128;28;20042;-89
2021/04/02 12:03:18;;;;;;;10.43;2.72;;;;;;;12.73;41.98;102910.19;5034973;28;20037;-86
2021/04/02 12:05:54;;;;;;;7.80;2.72;;;;;;;12.72;42.13;102897.75;5034103;28;20049;-88
2021/04/02 12:08:28;;;;;;;10.10;2.40;;;;;;;12.86;42.76;102901.38;5034888;28;20109;-87
2021/04/02 12:11:13;;;;;;;11.82;2.75;;;;;;;12.66;42.02;102903.06;5035283;28;20025;-89
2021/04/02 12:13:45;;;;;;;9.65;2.67;;;;;;;12.83;42.60;102900.47;5036656;28;20465;-89
2021/04/02 12:16:25;;;;;;;13.40;3.00;;;;;;;12.94;42.51;102904.94;5036954;28;20044;-90
2021/04/02 12:19:03;;;;;;;13.38;3.28;;;;;;;12.92;41.72;102901.41;5032560;28;20057;-90